| time (UTC) | temp F | wind direction | speed knots | gust knots | rain 1hr in | rain 24hr in | rain mn in | humidity % | barometer mb |
| 20260509013007 | 65 | 0 | 0.0 | 0.0 | 0.00 | 0.00 | 0.00 | 55 | 1009.9 |
| 20260509012506 | 65 | 0 | 0.0 | 0.0 | 0.00 | 0.00 | 0.00 | 52 | 1009.9 |
| 20260509012006 | 65 | 0 | 0.0 | 0.0 | 0.00 | 0.00 | 0.00 | 51 | 1009.8 |
| 20260509011506 | 65 | 0 | 0.0 | 0.0 | 0.00 | 0.00 | 0.00 | 51 | 1009.9 |
| 20260509011006 | 65 | 0 | 0.0 | 0.0 | 0.00 | 0.00 | 0.00 | 51 | 1009.9 |
| 20260509010506 | 66 | 0 | 0.0 | 0.9 | 0.00 | 0.00 | 0.00 | 51 | 1009.9 |
| 20260509010006 | 66 | 0 | 0.0 | 0.9 | 0.00 | 0.00 | 0.00 | 50 | 1009.8 |
| 20260509005506 | 66 | 0 | 0.0 | 0.0 | 0.00 | 0.00 | 0.00 | 50 | 1009.8 |
| 20260509005006 | 66 | 0 | 0.0 | 0.9 | 0.00 | 0.00 | 0.00 | 49 | 1009.8 |
| 20260509004507 | 66 | 0 | 0.0 | 0.9 | 0.00 | 0.00 | 0.00 | 51 | 1009.7 |
| 20260509004006 | 66 | 0 | 0.0 | 0.9 | 0.00 | 0.00 | 0.00 | 48 | 1009.7 |
| 20260509003506 | 66 | 0 | 0.0 | 0.9 | 0.00 | 0.00 | 0.00 | 48 | 1009.7 |
| 20260509003006 | 67 | 0 | 0.0 | 0.9 | 0.00 | 0.00 | 0.00 | 49 | 1009.6 |
| 20260509002506 | 67 | 0 | 0.0 | 0.9 | 0.00 | 0.00 | 0.00 | 49 | 1009.6 |
| 20260509001507 | 67 | 0 | 0.0 | 4.3 | 0.00 | 0.00 | 0.00 | 48 | 1009.5 |
| 20260509001006 | 67 | 171 | 0.9 | 4.3 | 0.00 | 0.00 | 0.00 | 49 | 1009.6 |
| 20260509000507 | 67 | 0 | 0.0 | 3.5 | 0.00 | 0.00 | 0.00 | 48 | 1009.6 |
| 20260509000007 | 67 | 0 | 0.0 | 3.5 | 0.00 | 0.00 | 0.00 | 49 | 1009.6 |
| 20260508235507 | 68 | 184 | 0.9 | 4.3 | 0.00 | 0.00 | 0.00 | 48 | 1009.7 |
| 20260508235005 | 68 | 0 | 0.0 | 4.3 | 0.00 | 0.00 | 0.00 | 46 | 1009.7 |
| 20260508234507 | 68 | 0 | 0.0 | 4.3 | 0.00 | 0.00 | 0.00 | 47 | 1009.7 |
| 20260508234006 | 68 | 0 | 0.0 | 0.9 | 0.00 | 0.00 | 0.00 | 46 | 1009.7 |
| 20260508233506 | 68 | 0 | 0.0 | 0.0 | 0.00 | 0.00 | 0.00 | 46 | 1009.6 |
| 20260508233006 | 68 | 0 | 0.0 | 0.0 | 0.00 | 0.00 | 0.00 | 46 | 1009.6 |
| 20260508232506 | 68 | 0 | 0.0 | 0.0 | 0.00 | 0.00 | 0.00 | 46 | 1009.6 |
| 20260508232006 | 68 | 0 | 0.0 | 0.0 | 0.00 | 0.00 | 0.00 | 46 | 1009.7 |
| 20260508231506 | 68 | 0 | 0.0 | 0.0 | 0.00 | 0.00 | 0.00 | 47 | 1009.6 |
| 20260508231006 | 68 | 0 | 0.0 | 0.9 | 0.00 | 0.00 | 0.00 | 47 | 1009.6 |
| 20260508230506 | 68 | 0 | 0.0 | 0.9 | 0.00 | 0.00 | 0.00 | 47 | 1009.7 |
| 20260508230006 | 68 | 0 | 0.0 | 6.1 | 0.00 | 0.00 | 0.00 | 46 | 1009.7 |
| 20260508225505 | 68 | 0 | 0.0 | 6.1 | 0.00 | 0.00 | 0.00 | 48 | 1009.6 |
| 20260508225006 | 69 | 0 | 0.0 | 1.7 | 0.00 | 0.00 | 0.00 | 47 | 1009.5 |
| 20260508224506 | 69 | 0 | 0.0 | 0.0 | 0.00 | 0.00 | 0.00 | 45 | 1009.6 |
| 20260508223506 | 69 | 0 | 0.0 | 4.3 | 0.00 | 0.00 | 0.00 | 44 | 1009.5 |
| 20260508223006 | 69 | 0 | 0.0 | 1.7 | 0.00 | 0.00 | 0.00 | 44 | 1009.4 |
| 20260508222506 | 69 | 0 | 0.0 | 5.2 | 0.00 | 0.00 | 0.00 | 43 | 1009.4 |
| 20260508222006 | 70 | 0 | 0.0 | 5.2 | 0.00 | 0.00 | 0.00 | 44 | 1009.6 |
| 20260508221506 | 70 | 0 | 0.0 | 5.2 | 0.00 | 0.00 | 0.00 | 43 | 1009.5 |
| 20260508221006 | 70 | 0 | 0.0 | 8.7 | 0.00 | 0.00 | 0.00 | 42 | 1009.4 |
| 20260508220505 | 70 | 0 | 0.0 | 8.7 | 0.00 | 0.00 | 0.00 | 43 | 1009.3 |
| 20260508220005 | 70 | 0 | 0.0 | 1.7 | 0.00 | 0.00 | 0.00 | 42 | 1009.3 |
| 20260508215505 | 70 | 0 | 0.0 | 4.3 | 0.00 | 0.00 | 0.00 | 43 | 1009.3 |
| 20260508215006 | 70 | 0 | 0.0 | 8.7 | 0.00 | 0.00 | 0.00 | 42 | 1009.4 |
| 20260508214006 | 70 | 196 | 0.9 | 7.0 | 0.00 | 0.00 | 0.00 | 41 | 1009.5 |
| 20260508213505 | 71 | 201 | 0.9 | 7.0 | 0.00 | 0.00 | 0.00 | 40 | 1009.5 |
| 20260508213006 | 71 | 189 | 0.9 | 11.3 | 0.00 | 0.00 | 0.00 | 44 | 1009.5 |
| 20260508212505 | 71 | 176 | 0.9 | 11.3 | 0.00 | 0.00 | 0.00 | 41 | 1009.5 |
| 20260508212006 | 71 | 185 | 0.9 | 9.6 | 0.00 | 0.00 | 0.00 | 41 | 1009.5 |
| 20260508211506 | 71 | 178 | 1.7 | 9.6 | 0.00 | 0.00 | 0.00 | 41 | 1009.6 |
| 20260508211005 | 71 | 172 | 1.7 | 6.1 | 0.00 | 0.00 | 0.00 | 41 | 1009.6 |
| 20260508210506 | 71 | 174 | 1.7 | 8.7 | 0.00 | 0.00 | 0.00 | 41 | 1009.8 |
| 20260508210006 | 71 | 179 | 1.7 | 10.4 | 0.00 | 0.00 | 0.00 | 40 | 1010.0 |
| 20260508205505 | 71 | 188 | 0.9 | 10.4 | 0.00 | 0.00 | 0.00 | 41 | 1010.0 |
| 20260508204506 | 70 | 200 | 0.9 | 7.0 | 0.00 | 0.00 | 0.00 | 41 | 1010.1 |
| 20260508204006 | 70 | 0 | 0.0 | 5.2 | 0.00 | 0.00 | 0.00 | 41 | 1010.1 |
| 20260508203505 | 70 | 0 | 0.0 | 3.5 | 0.00 | 0.00 | 0.00 | 42 | 1010.3 |
| 20260508203006 | 70 | 0 | 0.0 | 4.3 | 0.00 | 0.00 | 0.00 | 43 | 1010.5 |
| 20260508202505 | 70 | 0 | 0.0 | 4.3 | 0.00 | 0.00 | 0.00 | 41 | 1010.5 |
| 20260508201506 | 70 | 0 | 0.0 | 4.3 | 0.00 | 0.00 | 0.00 | 40 | 1010.5 |
| 20260508201006 | 70 | 0 | 0.0 | 6.1 | 0.00 | 0.00 | 0.00 | 42 | 1010.7 |
| 20260508200506 | 70 | 193 | 0.9 | 6.1 | 0.00 | 0.00 | 0.00 | 40 | 1010.8 |
| 20260508200006 | 70 | 189 | 1.7 | 6.1 | 0.00 | 0.00 | 0.00 | 39 | 1010.8 |
| 20260508195506 | 70 | 186 | 1.7 | 13.9 | 0.00 | 0.00 | 0.00 | 39 | 1010.9 |
| 20260508195006 | 71 | 189 | 1.7 | 13.9 | 0.00 | 0.00 | 0.00 | 38 | 1011.0 |
| 20260508194506 | 71 | 175 | 0.9 | 6.1 | 0.00 | 0.00 | 0.00 | 41 | 1010.9 |
| 20260508194006 | 71 | 191 | 1.7 | 9.6 | 0.00 | 0.00 | 0.00 | 36 | 1011.0 |
| 20260508193506 | 71 | 205 | 2.6 | 10.4 | 0.00 | 0.00 | 0.00 | 37 | 1011.0 |
| 20260508193006 | 71 | 204 | 2.6 | 10.4 | 0.00 | 0.00 | 0.00 | 36 | 1011.2 |
| 20260508192506 | 71 | 190 | 1.7 | 7.0 | 0.00 | 0.00 | 0.00 | 38 | 1011.2 |
| 20260508192005 | 72 | 185 | 1.7 | 13.9 | 0.00 | 0.00 | 0.00 | 36 | 1011.2 |
| 20260508191506 | 71 | 191 | 1.7 | 13.9 | 0.00 | 0.00 | 0.00 | 38 | 1011.2 |
| 20260508191006 | 71 | 225 | 1.7 | 7.0 | 0.00 | 0.00 | 0.00 | 40 | 1011.3 |
| 20260508190505 | 71 | 204 | 2.6 | 8.7 | 0.00 | 0.00 | 0.00 | 37 | 1011.3 |
| 20260508190006 | 71 | 187 | 1.7 | 8.7 | 0.00 | 0.00 | 0.00 | 40 | 1011.3 |
| 20260508185506 | 71 | 197 | 0.9 | 10.4 | 0.00 | 0.00 | 0.00 | 38 | 1011.5 |
| 20260508185005 | 71 | 188 | 0.9 | 10.4 | 0.00 | 0.00 | 0.00 | 40 | 1011.4 |
| 20260508184506 | 71 | 184 | 0.9 | 7.0 | 0.00 | 0.00 | 0.00 | 39 | 1011.4 |
| 20260508184006 | 71 | 201 | 0.9 | 9.6 | 0.00 | 0.00 | 0.00 | 38 | 1011.5 |
| 20260508183505 | 71 | 207 | 0.9 | 9.6 | 0.00 | 0.00 | 0.00 | 39 | 1011.8 |
| 20260508183006 | 70 | 0 | 0.0 | 8.7 | 0.00 | 0.00 | 0.00 | 41 | 1011.9 |
| 20260508182505 | 70 | 0 | 0.0 | 5.2 | 0.00 | 0.00 | 0.00 | 40 | 1011.9 |
| 20260508182005 | 70 | 0 | 0.0 | 2.6 | 0.00 | 0.00 | 0.00 | 40 | 1012.1 |
| 20260508181505 | 71 | 199 | 0.9 | 8.7 | 0.00 | 0.00 | 0.00 | 40 | 1012.1 |
| 20260508181005 | 70 | 188 | 2.6 | 8.7 | 0.00 | 0.00 | 0.00 | 39 | 1012.2 |
| 20260508180505 | 70 | 174 | 1.7 | 8.7 | 0.00 | 0.00 | 0.00 | 40 | 1012.3 |
| 20260508175505 | 70 | 184 | 1.7 | 9.6 | 0.00 | 0.00 | 0.00 | 41 | 1012.5 |
| 20260508174005 | 69 | 182 | 2.6 | 10.4 | 0.00 | 0.00 | 0.00 | 40 | 1012.7 |
| 20260508173505 | 69 | 186 | 1.7 | 10.4 | 0.00 | 0.00 | 0.00 | 39 | 1012.7 |
| 20260508173005 | 69 | 190 | 0.9 | 10.4 | 0.00 | 0.00 | 0.00 | 42 | 1012.8 |
| 20260508172505 | 69 | 181 | 2.6 | 13.0 | 0.00 | 0.00 | 0.00 | 40 | 1013.0 |
| 20260508172005 | 69 | 187 | 2.6 | 13.0 | 0.00 | 0.00 | 0.00 | 42 | 1013.1 |
| 20260508171505 | 69 | 200 | 0.9 | 9.6 | 0.00 | 0.00 | 0.00 | 40 | 1013.2 |
| 20260508171005 | 69 | 185 | 0.9 | 5.2 | 0.00 | 0.00 | 0.00 | 43 | 1013.3 |
| 20260508170505 | 68 | 182 | 0.9 | 6.1 | 0.00 | 0.00 | 0.00 | 44 | 1013.3 |
| 20260508170005 | 68 | 0 | 0.0 | 6.1 | 0.00 | 0.00 | 0.00 | 40 | 1013.5 |
| 20260508165505 | 68 | 0 | 0.0 | 5.2 | 0.00 | 0.00 | 0.00 | 42 | 1013.4 |
| 20260508165005 | 68 | 0 | 0.0 | 0.0 | 0.00 | 0.00 | 0.00 | 43 | 1013.6 |
| 20260508164505 | 68 | 0 | 0.0 | 0.9 | 0.00 | 0.00 | 0.00 | 42 | 1013.7 |
| 20260508164005 | 68 | 186 | 0.9 | 6.1 | 0.00 | 0.00 | 0.00 | 43 | 1013.9 |
| 20260508163005 | 68 | 0 | 0.0 | 6.1 | 0.00 | 0.00 | 0.00 | 45 | 1014.2 |
| 20260508162505 | 67 | 189 | 0.9 | 12.2 | 0.00 | 0.00 | 0.00 | 42 | 1014.1 |
| 20260508162004 | 68 | 189 | 0.9 | 12.2 | 0.00 | 0.00 | 0.00 | 44 | 1014.2 |
| 20260508161506 | 68 | 0 | 0.0 | 10.4 | 0.00 | 0.00 | 0.00 | 43 | 1014.3 |
| 20260508161005 | 68 | 0 | 0.0 | 7.0 | 0.00 | 0.00 | 0.00 | 43 | 1014.4 |
| 20260508160505 | 68 | 0 | 0.0 | 6.1 | 0.00 | 0.00 | 0.00 | 45 | 1014.4 |
| 20260508160006 | 67 | 0 | 0.0 | 6.1 | 0.00 | 0.00 | 0.00 | 48 | 1014.5 |
| 20260508155505 | 67 | 0 | 0.0 | 3.5 | 0.00 | 0.00 | 0.00 | 49 | 1014.4 |
| 20260508155005 | 66 | 0 | 0.0 | 7.0 | 0.00 | 0.00 | 0.00 | 46 | 1014.5 |
| 20260508154506 | 66 | 0 | 0.0 | 7.0 | 0.00 | 0.00 | 0.00 | 46 | 1014.6 |
| 20260508154004 | 66 | 0 | 0.0 | 1.7 | 0.00 | 0.00 | 0.00 | 49 | 1014.7 |
| 20260508153505 | 66 | 0 | 0.0 | 10.4 | 0.00 | 0.00 | 0.00 | 48 | 1014.8 |
| 20260508153005 | 66 | 0 | 0.0 | 10.4 | 0.00 | 0.00 | 0.00 | 48 | 1014.9 |
| 20260508151505 | 65 | 196 | 0.9 | 7.8 | 0.00 | 0.00 | 0.00 | 49 | 1015.1 |
| 20260508151005 | 64 | 190 | 0.9 | 5.2 | 0.00 | 0.00 | 0.00 | 49 | 1015.2 |
| 20260508150505 | 64 | 193 | 0.9 | 7.0 | 0.00 | 0.00 | 0.00 | 48 | 1015.3 |
| 20260508150005 | 64 | 198 | 0.9 | 8.7 | 0.00 | 0.00 | 0.00 | 50 | 1015.4 |
| 20260508145505 | 64 | 200 | 0.9 | 8.7 | 0.00 | 0.00 | 0.00 | 49 | 1015.3 |
| 20260508145005 | 63 | 191 | 0.9 | 5.2 | 0.00 | 0.00 | 0.00 | 51 | 1015.2 |
| 20260508144505 | 63 | 0 | 0.0 | 5.2 | 0.00 | 0.00 | 0.00 | 51 | 1015.2 |
| 20260508144005 | 62 | 0 | 0.0 | 4.3 | 0.00 | 0.00 | 0.00 | 52 | 1015.4 |
| 20260508143005 | 61 | 211 | 0.9 | 4.3 | 0.00 | 0.00 | 0.00 | 54 | 1015.4 |
| 20260508142005 | 60 | 166 | 1.7 | 7.8 | 0.00 | 0.00 | 0.00 | 56 | 1015.5 |
| 20260508141505 | 60 | 167 | 0.9 | 7.8 | 0.00 | 0.00 | 0.00 | 58 | 1015.5 |
| 20260508141004 | 59 | 0 | 0.0 | 5.2 | 0.00 | 0.00 | 0.00 | 60 | 1015.5 |
| 20260508140505 | 58 | 0 | 0.0 | 0.0 | 0.00 | 0.00 | 0.00 | 62 | 1015.5 |
| 20260508140005 | 58 | 0 | 0.0 | 0.0 | 0.00 | 0.00 | 0.00 | 64 | 1015.5 |
| 20260508135505 | 57 | 0 | 0.0 | 1.7 | 0.00 | 0.00 | 0.00 | 65 | 1015.6 |
| 20260508135005 | 56 | 0 | 0.0 | 4.3 | 0.00 | 0.00 | 0.00 | 66 | 1015.7 |
| 20260508134505 | 55 | 0 | 0.0 | 4.3 | 0.00 | 0.00 | 0.00 | 68 | 1015.7 |
| 20260508134005 | 54 | 0 | 0.0 | 0.9 | 0.00 | 0.00 | 0.00 | 70 | 1015.7 |
| 20260508133505 | 54 | 0 | 0.0 | 0.9 | 0.00 | 0.00 | 0.00 | 74 | 1015.7 |
| 20260508133005 | 52 | 0 | 0.0 | 0.0 | 0.00 | 0.00 | 0.00 | 76 | 1015.8 |
| 20260508132504 | 52 | 0 | 0.0 | 0.9 | 0.00 | 0.00 | 0.00 | 78 | 1015.8 |
| 20260508132005 | 50 | 0 | 0.0 | 0.9 | 0.00 | 0.00 | 0.00 | 80 | 1015.8 |
| 20260508131505 | 49 | 0 | 0.0 | 0.9 | 0.00 | 0.00 | 0.00 | 82 | 1015.9 |
| 20260508131004 | 48 | 0 | 0.0 | 0.9 | 0.00 | 0.00 | 0.00 | 78 | 1015.8 |
| 20260508130005 | 47 | 0 | 0.0 | 0.0 | 0.00 | 0.00 | 0.00 | 34 | 1015.8 |
| 20260508125505 | 46 | 0 | 0.0 | 0.0 | 0.00 | 0.00 | 0.00 | 17 | 1015.7 |
| 20260508125005 | 45 | 0 | 0.0 | 0.9 | 0.00 | 0.00 | 0.00 | 17 | 1015.7 |
| 20260508124505 | 44 | 0 | 0.0 | 0.9 | 0.00 | 0.00 | 0.00 | 17 | 1015.8 |
| 20260508123505 | 43 | 0 | 0.0 | 0.0 | 0.00 | 0.00 | 0.00 | 18 | 1015.7 |
| 20260508123005 | 43 | 0 | 0.0 | 0.0 | 0.00 | 0.00 | 0.00 | 18 | 1015.7 |
| 20260508122504 | 42 | 0 | 0.0 | 0.0 | 0.00 | 0.00 | 0.00 | 19 | 1015.7 |
| 20260508122005 | 42 | 0 | 0.0 | 0.0 | 0.00 | 0.00 | 0.00 | 19 | 1015.6 |
| 20260508121505 | 41 | 0 | 0.0 | 0.0 | 0.00 | 0.00 | 0.00 | 20 | 1015.6 |
| 20260508121005 | 41 | 0 | 0.0 | 0.0 | 0.00 | 0.00 | 0.00 | 21 | 1015.6 |
| 20260508120005 | 40 | 0 | 0.0 | 0.0 | 0.00 | 0.00 | 0.00 | 23 | 1015.6 |
| 20260508115005 | 39 | 0 | 0.0 | 0.0 | 0.00 | 0.00 | 0.00 | 26 | 1015.5 |
| 20260508114505 | 39 | 0 | 0.0 | 0.0 | 0.00 | 0.00 | 0.00 | 28 | 1015.4 |
| 20260508114004 | 39 | 0 | 0.0 | 0.0 | 0.00 | 0.00 | 0.00 | 29 | 1015.4 |
| 20260508113504 | 38 | 0 | 0.0 | 0.0 | 0.00 | 0.00 | 0.00 | 29 | 1015.3 |
| 20260508112504 | 38 | 0 | 0.0 | 0.0 | 0.00 | 0.00 | 0.00 | 32 | 1015.3 |
| 20260508112004 | 38 | 0 | 0.0 | 0.0 | 0.00 | 0.00 | 0.00 | 33 | 1015.2 |
| 20260508111505 | 38 | 0 | 0.0 | 0.0 | 0.00 | 0.00 | 0.00 | 33 | 1015.1 |
| 20260508111004 | 38 | 0 | 0.0 | 0.0 | 0.00 | 0.00 | 0.00 | 33 | 1015.2 |
| 20260508110505 | 38 | 0 | 0.0 | 0.0 | 0.00 | 0.00 | 0.00 | 34 | 1015.1 |
| 20260508105505 | 38 | 0 | 0.0 | 0.0 | 0.00 | 0.00 | 0.00 | 34 | 1015.0 |
| 20260508105004 | 38 | 0 | 0.0 | 0.0 | 0.00 | 0.00 | 0.00 | 34 | 1015.0 |
| 20260508104505 | 38 | 0 | 0.0 | 0.0 | 0.00 | 0.00 | 0.00 | 34 | 1015.0 |
| 20260508104004 | 38 | 0 | 0.0 | 0.0 | 0.00 | 0.00 | 0.00 | 34 | 1014.9 |
| 20260508103504 | 38 | 0 | 0.0 | 0.0 | 0.00 | 0.00 | 0.00 | 33 | 1015.0 |
| 20260508103004 | 38 | 0 | 0.0 | 0.0 | 0.00 | 0.00 | 0.00 | 33 | 1015.0 |
| 20260508102504 | 38 | 0 | 0.0 | 0.0 | 0.00 | 0.00 | 0.00 | 32 | 1015.0 |
| 20260508102005 | 38 | 0 | 0.0 | 0.0 | 0.00 | 0.00 | 0.00 | 33 | 1015.0 |
| 20260508101505 | 38 | 0 | 0.0 | 0.0 | 0.00 | 0.00 | 0.00 | 33 | 1015.0 |
| 20260508101004 | 38 | 0 | 0.0 | 0.0 | 0.00 | 0.00 | 0.00 | 34 | 1015.0 |
| 20260508100005 | 38 | 0 | 0.0 | 0.0 | 0.00 | 0.00 | 0.00 | 36 | 1015.0 |
| 20260508095504 | 38 | 0 | 0.0 | 0.0 | 0.00 | 0.00 | 0.00 | 38 | 1015.0 |
| 20260508095004 | 38 | 0 | 0.0 | 0.0 | 0.00 | 0.00 | 0.00 | 38 | 1015.0 |
| 20260508094505 | 38 | 0 | 0.0 | 0.0 | 0.00 | 0.00 | 0.00 | 40 | 1015.0 |
| 20260508094004 | 38 | 0 | 0.0 | 0.0 | 0.00 | 0.00 | 0.00 | 41 | 1015.0 |
| 20260508093504 | 38 | 0 | 0.0 | 0.0 | 0.00 | 0.00 | 0.00 | 42 | 1015.0 |
| 20260508093004 | 38 | 0 | 0.0 | 0.0 | 0.00 | 0.00 | 0.00 | 42 | 1014.9 |
| 20260508091504 | 38 | 0 | 0.0 | 0.0 | 0.00 | 0.00 | 0.00 | 43 | 1014.8 |
| 20260508091004 | 38 | 0 | 0.0 | 0.0 | 0.00 | 0.00 | 0.00 | 43 | 1014.8 |
| 20260508090005 | 38 | 0 | 0.0 | 0.0 | 0.00 | 0.00 | 0.00 | 44 | 1014.9 |
| 20260508085504 | 38 | 0 | 0.0 | 0.0 | 0.00 | 0.00 | 0.00 | 44 | 1014.9 |
| 20260508085004 | 38 | 0 | 0.0 | 0.0 | 0.00 | 0.00 | 0.00 | 44 | 1014.8 |
| 20260508084505 | 38 | 0 | 0.0 | 0.0 | 0.00 | 0.00 | 0.00 | 44 | 1014.8 |
| 20260508084005 | 38 | 0 | 0.0 | 0.0 | 0.00 | 0.00 | 0.00 | 44 | 1014.7 |
| 20260508083504 | 38 | 0 | 0.0 | 0.0 | 0.00 | 0.00 | 0.00 | 45 | 1014.7 |
| 20260508083004 | 38 | 0 | 0.0 | 0.0 | 0.00 | 0.00 | 0.00 | 45 | 1014.8 |
| 20260508082504 | 38 | 0 | 0.0 | 0.0 | 0.00 | 0.00 | 0.00 | 46 | 1014.8 |
| 20260508082004 | 38 | 0 | 0.0 | 0.0 | 0.00 | 0.00 | 0.00 | 46 | 1014.7 |
| 20260508081504 | 38 | 0 | 0.0 | 0.0 | 0.00 | 0.00 | 0.00 | 47 | 1014.7 |
| 20260508081004 | 38 | 0 | 0.0 | 0.0 | 0.00 | 0.00 | 0.00 | 47 | 1014.8 |
| 20260508080504 | 38 | 0 | 0.0 | 0.0 | 0.00 | 0.00 | 0.00 | 48 | 1014.7 |
| 20260508080004 | 38 | 0 | 0.0 | 0.0 | 0.00 | 0.00 | 0.00 | 48 | 1014.7 |
| 20260508075504 | 38 | 0 | 0.0 | 0.0 | 0.00 | 0.00 | 0.00 | 48 | 1014.7 |
| 20260508075004 | 38 | 0 | 0.0 | 0.0 | 0.00 | 0.00 | 0.00 | 49 | 1014.7 |
| 20260508074504 | 38 | 0 | 0.0 | 0.0 | 0.00 | 0.00 | 0.00 | 50 | 1014.7 |
| 20260508074004 | 38 | 0 | 0.0 | 0.0 | 0.00 | 0.00 | 0.00 | 50 | 1014.7 |
| 20260508072503 | 39 | 0 | 0.0 | 0.0 | 0.00 | 0.00 | 0.00 | 52 | 1014.5 |
| 20260508072004 | 39 | 0 | 0.0 | 0.0 | 0.00 | 0.00 | 0.00 | 52 | 1014.6 |
| 20260508071504 | 39 | 0 | 0.0 | 0.0 | 0.00 | 0.00 | 0.00 | 52 | 1014.7 |
| 20260508071004 | 39 | 0 | 0.0 | 0.0 | 0.00 | 0.00 | 0.00 | 52 | 1014.8 |
| 20260508070504 | 39 | 0 | 0.0 | 0.0 | 0.00 | 0.00 | 0.00 | 52 | 1014.9 |
| 20260508070005 | 39 | 0 | 0.0 | 0.0 | 0.00 | 0.00 | 0.00 | 53 | 1015.0 |
| 20260508065503 | 39 | 0 | 0.0 | 0.0 | 0.00 | 0.00 | 0.00 | 53 | 1015.0 |
| 20260508064504 | 39 | 0 | 0.0 | 0.0 | 0.00 | 0.00 | 0.00 | 52 | 1015.2 |
| 20260508064004 | 39 | 0 | 0.0 | 0.0 | 0.00 | 0.00 | 0.00 | 52 | 1015.2 |
| 20260508063504 | 39 | 0 | 0.0 | 0.0 | 0.00 | 0.00 | 0.00 | 53 | 1015.2 |
| 20260508063004 | 40 | 0 | 0.0 | 0.0 | 0.00 | 0.00 | 0.00 | 53 | 1015.3 |
| 20260508062504 | 40 | 0 | 0.0 | 0.0 | 0.00 | 0.00 | 0.00 | 53 | 1015.3 |
| 20260508061504 | 40 | 0 | 0.0 | 0.0 | 0.00 | 0.00 | 0.00 | 54 | 1015.4 |
| 20260508060504 | 40 | 0 | 0.0 | 0.0 | 0.00 | 0.00 | 0.00 | 56 | 1015.5 |
| 20260508060005 | 40 | 0 | 0.0 | 0.0 | 0.00 | 0.00 | 0.00 | 57 | 1015.4 |
| 20260508055504 | 40 | 0 | 0.0 | 0.0 | 0.00 | 0.00 | 0.00 | 57 | 1015.4 |
| 20260508054004 | 40 | 0 | 0.0 | 0.0 | 0.00 | 0.00 | 0.00 | 59 | 1015.5 |
| 20260508053504 | 40 | 0 | 0.0 | 0.0 | 0.00 | 0.00 | 0.00 | 59 | 1015.4 |
| 20260508053004 | 40 | 0 | 0.0 | 0.0 | 0.00 | 0.00 | 0.00 | 59 | 1015.3 |
| 20260508052004 | 40 | 0 | 0.0 | 0.0 | 0.00 | 0.00 | 0.00 | 60 | 1015.4 |
| 20260508051504 | 40 | 0 | 0.0 | 0.0 | 0.00 | 0.00 | 0.00 | 62 | 1015.4 |
| 20260508051004 | 40 | 0 | 0.0 | 0.0 | 0.00 | 0.00 | 0.00 | 63 | 1015.3 |
| 20260508050503 | 40 | 0 | 0.0 | 0.0 | 0.00 | 0.00 | 0.00 | 63 | 1015.3 |
| 20260508045003 | 41 | 0 | 0.0 | 0.0 | 0.00 | 0.00 | 0.00 | 65 | 1015.4 |
| 20260508044504 | 41 | 0 | 0.0 | 0.0 | 0.00 | 0.00 | 0.00 | 65 | 1015.4 |
| 20260508043504 | 41 | 0 | 0.0 | 0.0 | 0.00 | 0.00 | 0.00 | 68 | 1015.4 |
| 20260508043004 | 41 | 0 | 0.0 | 0.0 | 0.00 | 0.00 | 0.00 | 69 | 1015.4 |
| 20260508042504 | 41 | 0 | 0.0 | 0.0 | 0.00 | 0.00 | 0.00 | 70 | 1015.4 |
| 20260508042004 | 41 | 0 | 0.0 | 0.0 | 0.00 | 0.00 | 0.00 | 70 | 1015.4 |
| 20260508041504 | 41 | 0 | 0.0 | 0.0 | 0.00 | 0.00 | 0.00 | 71 | 1015.4 |
| 20260508041004 | 41 | 0 | 0.0 | 0.0 | 0.00 | 0.00 | 0.00 | 72 | 1015.3 |
| 20260508040504 | 41 | 0 | 0.0 | 0.0 | 0.00 | 0.00 | 0.00 | 72 | 1015.3 |
| 20260508040005 | 42 | 0 | 0.0 | 0.0 | 0.00 | 0.00 | 0.00 | 72 | 1015.4 |
| 20260508035004 | 42 | 0 | 0.0 | 0.0 | 0.00 | 0.00 | 0.00 | 72 | 1015.4 |
| 20260508034504 | 42 | 0 | 0.0 | 0.0 | 0.00 | 0.00 | 0.00 | 73 | 1015.3 |
| 20260508034004 | 42 | 0 | 0.0 | 0.0 | 0.00 | 0.00 | 0.00 | 74 | 1015.4 |
| 20260508033504 | 42 | 0 | 0.0 | 0.0 | 0.00 | 0.00 | 0.00 | 74 | 1015.4 |
| 20260508033004 | 42 | 0 | 0.0 | 0.0 | 0.00 | 0.00 | 0.00 | 75 | 1015.4 |
| 20260508032504 | 42 | 0 | 0.0 | 0.0 | 0.00 | 0.00 | 0.00 | 75 | 1015.3 |
| 20260508032004 | 43 | 0 | 0.0 | 0.0 | 0.00 | 0.00 | 0.00 | 75 | 1015.3 |
| 20260508031504 | 43 | 0 | 0.0 | 0.0 | 0.00 | 0.00 | 0.00 | 76 | 1015.3 |
| 20260508031003 | 43 | 0 | 0.0 | 0.0 | 0.00 | 0.00 | 0.00 | 77 | 1015.3 |
| 20260508030004 | 43 | 0 | 0.0 | 0.0 | 0.00 | 0.00 | 0.00 | 78 | 1015.3 |
| 20260508025004 | 44 | 0 | 0.0 | 0.0 | 0.00 | 0.00 | 0.00 | 79 | 1015.3 |
| 20260508024504 | 44 | 0 | 0.0 | 0.0 | 0.00 | 0.00 | 0.00 | 79 | 1015.2 |
| 20260508024004 | 44 | 0 | 0.0 | 0.0 | 0.00 | 0.00 | 0.00 | 79 | 1015.3 |
| 20260508023506 | 44 | 0 | 0.0 | 0.0 | 0.00 | 0.00 | 0.00 | 80 | 1015.2 |
| 20260508023007 | 44 | 0 | 0.0 | 0.0 | 0.00 | 0.00 | 0.00 | 80 | 1015.1 |
| 20260508022506 | 45 | 0 | 0.0 | 0.0 | 0.00 | 0.00 | 0.00 | 80 | 1015.0 |
| 20260508022006 | 45 | 0 | 0.0 | 0.0 | 0.00 | 0.00 | 0.00 | 81 | 1015.1 |
| 20260508021506 | 45 | 0 | 0.0 | 0.0 | 0.00 | 0.00 | 0.00 | 80 | 1015.0 |
| 20260508021006 | 46 | 0 | 0.0 | 0.0 | 0.00 | 0.00 | 0.00 | 81 | 1015.1 |
| 20260508020506 | 46 | 0 | 0.0 | 0.0 | 0.00 | 0.00 | 0.00 | 80 | 1015.0 |
| 20260508020007 | 46 | 0 | 0.0 | 0.0 | 0.00 | 0.00 | 0.00 | 80 | 1015.1 |
| 20260508015006 | 47 | 0 | 0.0 | 0.0 | 0.00 | 0.00 | 0.00 | 80 | 1015.0 |
| 20260508014507 | 47 | 0 | 0.0 | 0.0 | 0.00 | 0.00 | 0.00 | 79 | 1015.0 |
| 20260508014006 | 48 | 0 | 0.0 | 0.0 | 0.00 | 0.00 | 0.00 | 78 | 1014.9 |